Current Weather

Santa Rosa

Santa Rosa, Argentina (SAZR)

Report from: Friday, February 3, 2023 6:15 AM -03
Current time: Sunday, February 5, 2023 1:57 AM -03

Nearby weather
Weather history
Weather forecast

Present weatherFog
Temperature18.0°C (64.4°F)
Dew point17.0°C (62.6°F)
Winds 1 kts (0.5 m/s, 1.2 mph) East-Southeast (110°)
Visibility0.4 mi. (0.6 km)
Altimeter30.09 in.Hg (1019 mB)
Relative humidity94 %
Density altitude424 ft. (129 m)
Remarks Special weather observation
Flight conditions Low Instrument Meteorological Conditions
Raw dataSPECI SAZR 030915Z 11001KT 0600 FG NSC 18/17 Q1019
An unhandled exception has occurred. See browser dev tools for details. Reload 🗙